Terminal Aerodrome Forecast
Issued by NWS Pueblo, CO

Home | Current Version | Previous Version | Text Only | Print | Product List | Glossary On
Versions: 1 2 3 4 5 6 7 8 9 10 11 12 13 14 15 16 17 18 19 20 21 22 23 24 25 26 27 28 29 30 31 32 33 34 35 36 37 38 39 40 41 42 43 44 45 46 47 48
226
FTUS45 KPUB 300523
TAFPUB
TAF
KPUB 300523Z 3006/3106 07009KT P6SM FEW120 SCT200
     FM300900 29006KT P6SM SCT200
     FM301800 12012KT P6SM SCT100 SCT150
     FM302200 15014KT P6SM VCTS SCT080CB BKN120
     FM310000 34012KT P6SM SCT080 BKN150=

USA.gov is the U.S. government's official web portal to all federal, state and local government web resources and services.